createdAt,value
2023-03-05T00:01:24.552Z,96942.81
2023-03-05T00:03:50.837Z,96942.66
2023-03-05T00:06:17.124Z,96946.78
2023-03-05T00:08:43.446Z,96939.22
2023-03-05T00:11:09.738Z,96937.00
2023-03-05T00:13:35.992Z,96945.41
2023-03-05T00:16:02.301Z,96945.41
2023-03-05T00:18:28.571Z,96944.19
2023-03-05T00:20:54.828Z,96947.03
2023-03-05T00:23:21.102Z,96948.44
2023-03-05T00:25:47.393Z,96945.63
2023-03-05T00:28:13.673Z,96963.00
2023-03-05T00:30:39.950Z,96956.91
2023-03-05T00:33:06.235Z,96956.91
2023-03-05T00:35:34.106Z,96956.69
2023-03-05T00:38:01.347Z,96951.00
2023-03-05T00:40:27.666Z,96955.09
2023-03-05T00:42:53.936Z,96957.78
2023-03-05T00:45:20.226Z,96956.56
2023-03-05T00:47:46.488Z,96960.03
2023-03-05T00:50:12.810Z,96955.31
2023-03-05T00:52:39.090Z,96950.56
2023-03-05T00:55:05.360Z,96952.75
2023-03-05T00:57:31.639Z,96954.56
2023-03-05T00:59:57.908Z,96959.28
2023-03-05T01:02:24.151Z,96959.44
2023-03-05T01:04:50.505Z,96963.50
2023-03-05T01:07:16.828Z,96969.06
2023-03-05T01:09:43.109Z,96962.09
2023-03-05T01:12:09.408Z,96965.81
2023-03-05T01:14:35.681Z,96960.56
2023-03-05T01:17:01.983Z,96964.44
2023-03-05T01:19:28.265Z,96956.31
2023-03-05T01:21:54.795Z,96953.47
2023-03-05T01:24:21.144Z,96950.22
2023-03-05T01:26:47.416Z,96949.84
2023-03-05T01:29:13.689Z,96950.25
2023-03-05T01:31:40.002Z,96943.34
2023-03-05T01:34:06.304Z,96948.50
2023-03-05T01:36:32.621Z,96931.22
2023-03-05T01:38:58.905Z,96934.47
2023-03-05T01:41:25.184Z,96925.50
2023-03-05T01:43:51.469Z,96925.28
2023-03-05T01:46:17.734Z,96934.09
2023-03-05T01:48:44.037Z,96941.13
2023-03-05T01:51:10.337Z,96934.22
2023-03-05T01:53:36.627Z,96930.41
2023-03-05T01:56:02.888Z,96929.00
2023-03-05T01:58:29.178Z,96929.22
2023-03-05T02:00:55.488Z,96915.34
2023-03-05T02:03:21.825Z,96910.25
2023-03-05T02:05:48.106Z,96908.59
2023-03-05T02:08:14.379Z,96912.66
2023-03-05T02:10:40.650Z,96914.31
2023-03-05T02:13:06.941Z,96911.91
2023-03-05T02:15:33.219Z,96910.88
2023-03-05T02:17:59.549Z,96909.06
2023-03-05T02:20:25.845Z,96908.47
2023-03-05T02:22:52.161Z,96905.00
2023-03-05T02:25:18.436Z,96896.66
2023-03-05T02:27:44.715Z,96904.41
2023-03-05T02:30:10.977Z,96899.50
2023-03-05T02:32:37.300Z,96895.41
2023-03-05T02:35:03.589Z,96894.19
2023-03-05T02:37:29.862Z,96889.72
2023-03-05T02:39:56.109Z,96880.38
2023-03-05T02:42:22.401Z,96884.03
2023-03-05T02:44:48.701Z,96891.59
2023-03-05T02:47:15.003Z,96896.69
2023-03-05T02:49:41.264Z,96887.72
2023-03-05T02:52:07.545Z,96895.66
2023-03-05T02:54:33.858Z,96898.91
2023-03-05T02:57:00.130Z,96887.72
2023-03-05T02:59:26.411Z,96889.53
2023-03-05T03:01:52.678Z,96883.03
2023-03-05T03:04:18.945Z,96891.38
2023-03-05T03:06:45.227Z,96887.31
2023-03-05T03:09:11.502Z,96891.38
2023-03-05T03:11:37.770Z,96891.56
2023-03-05T03:14:04.063Z,96890.97
2023-03-05T03:16:30.382Z,96905.41
2023-03-05T03:18:56.679Z,96898.09
2023-03-05T03:21:22.945Z,96898.88
2023-03-05T03:23:49.199Z,96900.91
2023-03-05T03:26:15.454Z,96901.53
2023-03-05T03:28:41.705Z,96904.38
2023-03-05T03:31:08.107Z,96902.13
2023-03-05T03:33:34.417Z,96895.41
2023-03-05T03:36:00.766Z,96897.22
2023-03-05T03:38:27.097Z,96891.31
2023-03-05T03:40:53.365Z,96892.72
2023-03-05T03:43:19.654Z,96893.75
2023-03-05T03:45:46.039Z,96884.56
2023-03-05T03:48:12.418Z,96877.69
2023-03-05T03:50:38.703Z,96879.31
2023-03-05T03:53:04.989Z,96877.28
2023-03-05T03:55:31.295Z,96875.03
2023-03-05T03:57:57.551Z,96876.69
2023-03-05T04:00:23.805Z,96874.88
2023-03-05T04:02:50.126Z,96877.72
2023-03-05T04:05:16.437Z,96875.50
2023-03-05T04:07:42.729Z,96864.72
2023-03-05T04:10:09.028Z,96866.94
2023-03-05T04:12:35.306Z,96861.88
2023-03-05T04:15:01.585Z,96866.34
2023-03-05T04:17:27.875Z,96869.81
2023-03-05T04:19:54.192Z,96866.34
2023-03-05T04:22:20.525Z,96870.63
2023-03-05T04:24:46.823Z,96871.03
2023-03-05T04:27:13.081Z,96867.16
2023-03-05T04:29:39.365Z,96878.94
2023-03-05T04:32:05.691Z,96868.16
2023-03-05T04:34:32.050Z,96865.31
2023-03-05T04:36:58.349Z,96865.31
2023-03-05T04:39:24.608Z,96861.84
2023-03-05T04:41:50.856Z,96863.91
2023-03-05T04:44:17.117Z,96857.78
2023-03-05T04:46:43.432Z,96867.97
2023-03-05T04:49:09.734Z,96863.69
2023-03-05T04:51:36.020Z,96860.22
2023-03-05T04:54:02.284Z,96865.09
2023-03-05T04:56:28.578Z,96849.03
2023-03-05T04:58:55.917Z,96869.38
2023-03-05T05:01:22.172Z,96846.81
2023-03-05T05:03:48.423Z,96855.34
2023-03-05T05:06:14.697Z,96849.25
2023-03-05T05:08:40.963Z,96856.16
2023-03-05T05:11:07.229Z,96851.28
2023-03-05T05:13:33.604Z,96840.91
2023-03-05T05:15:59.902Z,96845.59
2023-03-05T05:18:26.199Z,96854.72
2023-03-05T05:20:52.479Z,96855.94
2023-03-05T05:23:18.768Z,96858.78
2023-03-05T05:25:45.038Z,96853.72
2023-03-05T05:28:11.327Z,96857.75
2023-03-05T05:30:37.609Z,96857.78
2023-03-05T05:33:03.896Z,96851.88
2023-03-05T05:35:30.213Z,96861.41
2023-03-05T05:37:56.504Z,96861.19
2023-03-05T05:40:22.796Z,96855.28
2023-03-05T05:42:49.077Z,96851.22
2023-03-05T05:45:15.388Z,96858.72
2023-03-05T05:47:41.659Z,96853.41
2023-03-05T05:50:07.920Z,96854.22
2023-03-05T05:52:34.197Z,96850.75
2023-03-05T05:55:00.481Z,96852.59
2023-03-05T05:57:26.819Z,96855.63
2023-03-05T05:59:53.089Z,96853.59
2023-03-05T06:02:19.453Z,96855.25
2023-03-05T06:04:45.722Z,96854.84
2023-03-05T06:07:12.029Z,96848.78
2023-03-05T06:09:38.333Z,96854.47
2023-03-05T06:12:04.614Z,96853.66
2023-03-05T06:14:30.913Z,96852.81
2023-03-05T06:16:57.199Z,96851.19
2023-03-05T06:19:23.492Z,96842.88
2023-03-05T06:21:49.783Z,96847.75
2023-03-05T06:24:16.047Z,96852.84
2023-03-05T06:26:42.349Z,96846.34
2023-03-05T06:29:08.605Z,96848.19
2023-03-05T06:31:37.144Z,96856.09
2023-03-05T06:34:03.722Z,96859.94
2023-03-05T06:36:30.058Z,96854.22
2023-03-05T06:38:56.326Z,96848.50
2023-03-05T06:41:22.626Z,96850.53
2023-03-05T06:43:48.877Z,96855.41
2023-03-05T06:46:15.171Z,96852.97
2023-03-05T06:48:41.517Z,96857.25
2023-03-05T06:51:07.789Z,96850.13
2023-03-05T06:53:34.086Z,96848.31
2023-03-05T06:56:00.410Z,96860.88
2023-03-05T06:58:26.721Z,96861.88
2023-03-05T07:00:53.091Z,96860.06
2023-03-05T07:03:19.365Z,96857.44
2023-03-05T07:05:45.661Z,96851.34
2023-03-05T07:08:11.939Z,96849.78
2023-03-05T07:10:38.211Z,96849.16
2023-03-05T07:13:04.501Z,96850.81
2023-03-05T07:15:30.870Z,96842.47
2023-03-05T07:17:57.137Z,96851.63
2023-03-05T07:20:23.408Z,96843.28
2023-03-05T07:22:49.732Z,96846.16
2023-03-05T07:25:16.026Z,96853.66
2023-03-05T07:27:42.322Z,96853.47
2023-03-05T07:30:08.590Z,96854.88
2023-03-05T07:32:34.927Z,96850.03
2023-03-05T07:35:01.254Z,96847.56
2023-03-05T07:37:27.549Z,96849.59
2023-03-05T07:39:53.810Z,96849.41
2023-03-05T07:42:20.169Z,96851.84
2023-03-05T07:44:46.518Z,96846.53
2023-03-05T07:47:12.786Z,96848.19
2023-03-05T07:49:39.049Z,96840.88
2023-03-05T07:52:05.323Z,96847.56
2023-03-05T07:54:31.609Z,96838.66
2023-03-05T07:56:57.892Z,96843.34
2023-03-05T07:59:24.167Z,96842.09
2023-03-05T08:01:50.436Z,96846.16
2023-03-05T08:04:16.751Z,96842.53
2023-03-05T08:06:43.076Z,96843.94
2023-03-05T08:09:09.461Z,96842.72
2023-03-05T08:11:35.732Z,96839.66
2023-03-05T08:14:02.016Z,96839.25
2023-03-05T08:16:28.335Z,96840.06
2023-03-05T08:18:54.622Z,96837.03
2023-03-05T08:21:20.944Z,96831.75
2023-03-05T08:23:47.212Z,96834.00
2023-03-05T08:26:13.506Z,96831.16
2023-03-05T08:28:39.778Z,96832.97
2023-03-05T08:31:06.094Z,96827.25
2023-03-05T08:33:33.818Z,96830.72
2023-03-05T08:36:01.587Z,96821.97
2023-03-05T08:38:27.900Z,96822.56
2023-03-05T08:40:54.167Z,96821.16
2023-03-05T08:43:20.425Z,96819.31
2023-03-05T08:45:46.702Z,96830.31
2023-03-05T08:48:12.970Z,96828.06
2023-03-05T08:50:39.243Z,96824.41
2023-03-05T08:53:05.516Z,96829.69
2023-03-05T08:55:31.822Z,96819.91
2023-03-05T08:57:58.161Z,96825.63
2023-03-05T09:00:24.426Z,96818.88
2023-03-05T09:02:50.731Z,96811.34
2023-03-05T09:05:17.033Z,96825.16
2023-03-05T09:07:43.351Z,96820.25
2023-03-05T09:10:09.607Z,96821.06
2023-03-05T09:12:35.870Z,96814.09
2023-03-05T09:15:02.138Z,96814.09
2023-03-05T09:17:28.453Z,96807.56
2023-03-05T09:19:54.702Z,96793.06
2023-03-05T09:22:20.960Z,96791.81
2023-03-05T09:24:47.221Z,96795.47
2023-03-05T09:27:13.475Z,96796.41
2023-03-05T09:29:41.893Z,96790.63
2023-03-05T09:32:09.241Z,96789.53
2023-03-05T09:34:35.626Z,96785.81
2023-03-05T09:37:01.900Z,96782.56
2023-03-05T09:39:28.178Z,96784.63
2023-03-05T09:41:54.463Z,96781.63
2023-03-05T09:44:20.737Z,96777.72
2023-03-05T09:46:47.025Z,96773.63
2023-03-05T09:49:13.305Z,96775.25
2023-03-05T09:51:39.592Z,96772.38
2023-03-05T09:54:05.937Z,96771.22
2023-03-05T09:56:32.212Z,96768.91
2023-03-05T09:58:58.499Z,96769.13
2023-03-05T10:01:24.751Z,96770.91
2023-03-05T10:03:51.080Z,96771.34
2023-03-05T10:06:17.379Z,96763.31
2023-03-05T10:08:43.639Z,96756.31
2023-03-05T10:11:09.932Z,96757.88
2023-03-05T10:13:36.188Z,96757.88
2023-03-05T10:16:02.439Z,96752.56
2023-03-05T10:18:28.738Z,96745.72
2023-03-05T10:20:55.043Z,96745.28
2023-03-05T10:23:21.366Z,96741.66
2023-03-05T10:25:47.658Z,96739.44
2023-03-05T10:28:13.926Z,96742.19
2023-03-05T10:30:40.216Z,96739.31
2023-03-05T10:33:06.559Z,96741.81
2023-03-05T10:35:32.838Z,96729.78
2023-03-05T10:37:59.113Z,96724.03
2023-03-05T10:40:25.377Z,96716.44
2023-03-05T10:42:51.630Z,96720.56
2023-03-05T10:45:17.895Z,96714.97
2023-03-05T10:47:44.166Z,96707.97
2023-03-05T10:50:10.435Z,96705.22
2023-03-05T10:52:36.731Z,96691.88
2023-03-05T10:55:02.990Z,96697.63
2023-03-05T10:57:29.276Z,96684.94
2023-03-05T10:59:55.525Z,96691.34
2023-03-05T11:02:21.812Z,96680.22
2023-03-05T11:04:48.164Z,96680.56
2023-03-05T11:07:14.504Z,96684.16
2023-03-05T11:09:40.856Z,96677.50
2023-03-05T11:12:07.106Z,96670.25
2023-03-05T11:14:33.426Z,96667.81
2023-03-05T11:16:59.766Z,96659.84
2023-03-05T11:19:26.074Z,96662.50
2023-03-05T11:21:52.350Z,96655.19
2023-03-05T11:24:18.604Z,96654.16
2023-03-05T11:26:44.876Z,96645.06
2023-03-05T11:29:11.167Z,96648.88
2023-03-05T11:31:37.437Z,96645.41
2023-03-05T11:34:03.701Z,96642.78
2023-03-05T11:36:30.022Z,96647.06
2023-03-05T11:38:56.324Z,96636.66
2023-03-05T11:41:22.596Z,96635.03
2023-03-05T11:43:48.883Z,96632.13
2023-03-05T11:46:15.187Z,96622.44
2023-03-05T11:48:41.498Z,96623.81
2023-03-05T11:51:07.784Z,96617.44
2023-03-05T11:53:34.049Z,96603.31
2023-03-05T11:56:00.368Z,96601.94
2023-03-05T11:58:26.680Z,96601.59
2023-03-05T12:00:52.983Z,96595.56
2023-03-05T12:03:19.261Z,96589.78
2023-03-05T12:05:45.523Z,96584.69
2023-03-05T12:08:11.785Z,96589.31
2023-03-05T12:10:38.081Z,96581.09
2023-03-05T12:13:04.359Z,96571.78
2023-03-05T12:15:30.675Z,96566.19
2023-03-05T12:17:56.962Z,96569.25
2023-03-05T12:20:23.281Z,96564.47
2023-03-05T12:22:49.609Z,96554.72
2023-03-05T12:25:15.899Z,96557.78
2023-03-05T12:27:42.522Z,96550.59
2023-03-05T12:30:08.823Z,96549.31
2023-03-05T12:32:35.211Z,96545.09
2023-03-05T12:35:01.572Z,96537.44
2023-03-05T12:37:27.859Z,96541.41
2023-03-05T12:39:54.146Z,96535.56
2023-03-05T12:42:20.419Z,96531.19
2023-03-05T12:44:46.678Z,96526.75
2023-03-05T12:47:12.958Z,96515.94
2023-03-05T12:49:39.288Z,96510.50
2023-03-05T12:52:05.605Z,96507.28
2023-03-05T12:54:31.887Z,96510.09
2023-03-05T12:56:58.201Z,96508.69
2023-03-05T12:59:24.472Z,96501.34
2023-03-05T13:01:50.735Z,96500.09
2023-03-05T13:04:17.042Z,96492.53
2023-03-05T13:06:43.322Z,96491.03
2023-03-05T13:09:09.689Z,96496.63
2023-03-05T13:11:35.974Z,96486.13
2023-03-05T13:14:02.289Z,96485.69
2023-03-05T13:16:28.582Z,96482.63
2023-03-05T13:18:54.878Z,96470.38
2023-03-05T13:21:21.184Z,96474.19
2023-03-05T13:23:47.497Z,96460.44
2023-03-05T13:26:13.773Z,96464.81
2023-03-05T13:28:40.094Z,96464.88
2023-03-05T13:31:06.378Z,96458.09
2023-03-05T13:33:32.662Z,96466.28
2023-03-05T13:35:59.015Z,96458.47
2023-03-05T13:38:25.326Z,96459.31
2023-03-05T13:40:51.617Z,96457.47
2023-03-05T13:43:18.033Z,96455.22
2023-03-05T13:45:44.332Z,96455.84
2023-03-05T13:48:10.706Z,96447.91
2023-03-05T13:50:36.992Z,96441.50
2023-03-05T13:53:03.264Z,96439.13
2023-03-05T13:55:29.578Z,96433.06
2023-03-05T13:57:55.852Z,96430.91
2023-03-05T14:00:22.140Z,96419.69
2023-03-05T14:02:48.437Z,96422.69
2023-03-05T14:05:14.830Z,96409.63
2023-03-05T14:07:41.116Z,96407.06
2023-03-05T14:10:07.376Z,96402.34
2023-03-05T14:12:33.650Z,96394.72
2023-03-05T14:15:00.026Z,96392.25
2023-03-05T14:17:26.281Z,96396.41
2023-03-05T14:19:52.562Z,96382.53
2023-03-05T14:22:18.822Z,96384.50
2023-03-05T14:24:45.096Z,96376.94
2023-03-05T14:27:11.360Z,96377.00
2023-03-05T14:29:37.627Z,96377.84
2023-03-05T14:32:03.926Z,96370.63
2023-03-05T14:34:30.215Z,96369.03
2023-03-05T14:36:56.518Z,96366.66
2023-03-05T14:39:22.823Z,96355.94
2023-03-05T14:41:49.094Z,96362.66
2023-03-05T14:44:15.417Z,96355.16
2023-03-05T14:46:41.678Z,96357.53
2023-03-05T14:49:07.989Z,96350.81
2023-03-05T14:51:34.265Z,96346.81
2023-03-05T14:54:00.550Z,96341.19
2023-03-05T14:56:26.860Z,96335.28
2023-03-05T14:58:53.183Z,96335.00
2023-03-05T15:01:19.525Z,96333.41
2023-03-05T15:03:45.792Z,96328.03
2023-03-05T15:06:12.090Z,96319.47
2023-03-05T15:08:38.403Z,96318.13
2023-03-05T15:11:04.700Z,96309.00
2023-03-05T15:13:30.959Z,96310.34
2023-03-05T15:15:57.354Z,96300.44
2023-03-05T15:18:23.659Z,96309.81
2023-03-05T15:20:49.930Z,96297.19
2023-03-05T15:23:16.275Z,96305.75
2023-03-05T15:25:42.546Z,96296.09
2023-03-05T15:28:08.832Z,96291.00
2023-03-05T15:30:35.176Z,96291.25
2023-03-05T15:33:01.454Z,96286.16
2023-03-05T15:35:27.815Z,96284.28
2023-03-05T15:37:54.122Z,96283.50
2023-03-05T15:40:20.438Z,96274.91
2023-03-05T15:42:46.729Z,96270.09
2023-03-05T15:45:12.987Z,96268.75
2023-03-05T15:47:39.270Z,96264.19
2023-03-05T15:50:05.605Z,96255.88
2023-03-05T15:52:31.890Z,96257.50
2023-03-05T15:54:58.171Z,96255.63
2023-03-05T15:57:24.549Z,96257.75
2023-03-05T15:59:50.797Z,96248.13
2023-03-05T16:02:17.053Z,96248.41
2023-03-05T16:04:43.379Z,96255.09
2023-03-05T16:07:09.653Z,96244.91
2023-03-05T16:09:35.931Z,96243.06
2023-03-05T16:12:02.203Z,96243.59
2023-03-05T16:14:28.541Z,96251.13
2023-03-05T16:16:54.854Z,96246.81
2023-03-05T16:19:21.153Z,96244.97
2023-03-05T16:21:47.560Z,96243.94
2023-03-05T16:24:13.836Z,96248.47
2023-03-05T16:26:40.116Z,96239.91
2023-03-05T16:29:06.465Z,96243.41
2023-03-05T16:31:32.793Z,96243.69
2023-03-05T16:33:59.097Z,96240.72
2023-03-05T16:36:25.428Z,96242.06
2023-03-05T16:38:54.494Z,96243.41
2023-03-05T16:41:22.545Z,96240.19
2023-03-05T16:43:49.501Z,96243.38
2023-03-05T16:46:15.842Z,96242.56
2023-03-05T16:48:42.142Z,96240.41
2023-03-05T16:51:08.465Z,96237.97
2023-03-05T16:53:34.735Z,96242.25
2023-03-05T16:56:03.115Z,96240.06
2023-03-05T16:58:30.087Z,96236.03
2023-03-05T17:00:56.393Z,96238.44
2023-03-05T17:03:22.816Z,96230.94
2023-03-05T17:05:49.098Z,96228.50
2023-03-05T17:08:15.428Z,96227.13
2023-03-05T17:10:41.720Z,96227.66
2023-03-05T17:13:08.004Z,96234.28
2023-03-05T17:15:34.333Z,96236.09
2023-03-05T17:18:00.621Z,96244.09
2023-03-05T17:20:26.892Z,96234.13
2023-03-05T17:22:53.221Z,96239.41
2023-03-05T17:25:19.501Z,96240.94
2023-03-05T17:27:45.848Z,96241.41
2023-03-05T17:30:12.137Z,96240.00
2023-03-05T17:32:38.473Z,96243.16
2023-03-05T17:35:05.658Z,96233.97
2023-03-05T17:37:31.974Z,96237.09
2023-03-05T17:39:58.240Z,96243.47
2023-03-05T17:42:24.529Z,96246.63
2023-03-05T17:44:50.799Z,96236.47
2023-03-05T17:47:17.082Z,96245.22
2023-03-05T17:49:43.356Z,96255.09
2023-03-05T17:52:09.674Z,96261.25
2023-03-05T17:54:35.989Z,96252.38
2023-03-05T17:57:02.273Z,96258.16
2023-03-05T17:59:28.552Z,96252.53
2023-03-05T18:01:54.849Z,96253.28
2023-03-05T18:04:21.170Z,96249.56
2023-03-05T18:06:47.495Z,96253.22
2023-03-05T18:09:13.762Z,96257.22
2023-03-05T18:11:40.060Z,96255.84
2023-03-05T18:14:06.343Z,96251.25
2023-03-05T18:16:32.656Z,96259.50
2023-03-05T18:18:58.936Z,96259.47
2023-03-05T18:21:25.188Z,96254.00
2023-03-05T18:23:51.442Z,96245.34
2023-03-05T18:26:17.868Z,96254.84
2023-03-05T18:28:44.136Z,96249.41
2023-03-05T18:31:10.474Z,96241.91
2023-03-05T18:33:36.771Z,96245.38
2023-03-05T18:36:03.047Z,96245.06
2023-03-05T18:38:29.333Z,96253.19
2023-03-05T18:40:55.592Z,96249.91
2023-03-05T18:43:21.865Z,96247.44
2023-03-05T18:45:48.180Z,96249.53
2023-03-05T18:48:14.581Z,96246.72
2023-03-05T18:50:40.846Z,96245.03
2023-03-05T18:53:07.133Z,96248.44
2023-03-05T18:55:33.442Z,96249.25
2023-03-05T18:57:59.725Z,96247.63
2023-03-05T19:00:26.042Z,96240.75
2023-03-05T19:02:52.322Z,96245.59
2023-03-05T19:05:18.644Z,96245.03
2023-03-05T19:07:45.010Z,96241.66
2023-03-05T19:10:11.347Z,96244.56
2023-03-05T19:12:37.678Z,96231.56
2023-03-05T19:15:03.969Z,96235.25
2023-03-05T19:17:30.285Z,96233.09
2023-03-05T19:19:56.546Z,96234.31
2023-03-05T19:22:22.808Z,96234.00
2023-03-05T19:24:49.074Z,96231.28
2023-03-05T19:27:15.355Z,96228.84
2023-03-05T19:29:41.690Z,96222.97
2023-03-05T19:32:08.049Z,96233.59
2023-03-05T19:34:34.353Z,96227.41
2023-03-05T19:37:00.684Z,96226.59
2023-03-05T19:39:26.942Z,96225.47
2023-03-05T19:41:53.225Z,96219.91
2023-03-05T19:44:19.512Z,96221.53
2023-03-05T19:46:45.802Z,96223.38
2023-03-05T19:49:12.068Z,96229.44
2023-03-05T19:51:38.349Z,96219.03
2023-03-05T19:54:04.625Z,96225.81
2023-03-05T19:56:30.943Z,96218.00
2023-03-05T19:58:57.220Z,96220.88
2023-03-05T20:01:23.593Z,96220.81
2023-03-05T20:03:50.023Z,96222.34
2023-03-05T20:06:16.384Z,96218.56
2023-03-05T20:08:42.669Z,96215.00
2023-03-05T20:11:08.948Z,96221.28
2023-03-05T20:13:35.288Z,96219.59
2023-03-05T20:16:01.586Z,96222.06
2023-03-05T20:18:27.881Z,96215.63
2023-03-05T20:20:54.215Z,96217.88
2023-03-05T20:23:20.488Z,96216.34
2023-03-05T20:25:46.789Z,96214.88
2023-03-05T20:28:13.074Z,96210.97
2023-03-05T20:30:39.382Z,96210.66
2023-03-05T20:33:05.661Z,96211.44
2023-03-05T20:35:31.979Z,96206.84
2023-03-05T20:37:58.317Z,96200.06
2023-03-05T20:40:24.622Z,96199.03
2023-03-05T20:42:50.984Z,96196.00
2023-03-05T20:45:17.649Z,96199.94
2023-03-05T20:47:43.913Z,96200.31
2023-03-05T20:50:10.220Z,96199.06
2023-03-05T20:52:36.486Z,96203.13
2023-03-05T20:55:02.794Z,96198.41
2023-03-05T20:57:29.068Z,96197.03
2023-03-05T20:59:55.318Z,96193.81
2023-03-05T21:02:21.691Z,96197.84
2023-03-05T21:04:48.244Z,96198.31
2023-03-05T21:07:14.532Z,96198.53
2023-03-05T21:09:40.827Z,96196.25
2023-03-05T21:12:07.120Z,96189.66
2023-03-05T21:14:33.445Z,96187.81
2023-03-05T21:16:59.772Z,96190.25
2023-03-05T21:19:26.018Z,96185.41
2023-03-05T21:21:52.319Z,96186.44
2023-03-05T21:24:18.585Z,96181.38
2023-03-05T21:26:44.854Z,96178.13
2023-03-05T21:29:11.121Z,96182.88
2023-03-05T21:31:37.534Z,96178.03
2023-03-05T21:34:03.872Z,96171.69
2023-03-05T21:36:30.183Z,96168.22
2023-03-05T21:38:56.487Z,96167.66
2023-03-05T21:41:22.809Z,96164.44
2023-03-05T21:43:49.064Z,96160.16
2023-03-05T21:46:15.423Z,96158.31
2023-03-05T21:48:41.785Z,96152.44
2023-03-05T21:51:08.070Z,96154.84
2023-03-05T21:53:34.378Z,96154.63
2023-03-05T21:56:00.648Z,96150.34
2023-03-05T21:58:26.909Z,96152.31
2023-03-05T22:00:53.227Z,96147.38
2023-03-05T22:03:19.522Z,96144.50
2023-03-05T22:05:45.810Z,96149.13
2023-03-05T22:08:12.073Z,96149.69
2023-03-05T22:10:38.345Z,96136.78
2023-03-05T22:13:04.592Z,96144.41
2023-03-05T22:15:30.904Z,96138.41
2023-03-05T22:17:57.208Z,96139.44
2023-03-05T22:20:23.463Z,96131.13
2023-03-05T22:22:49.722Z,96126.66
2023-03-05T22:25:16.015Z,96127.94
2023-03-05T22:27:42.286Z,96125.41
2023-03-05T22:30:08.556Z,96125.28
2023-03-05T22:32:34.884Z,96121.69
2023-03-05T22:35:01.221Z,96125.25
2023-03-05T22:37:27.492Z,96124.19
2023-03-05T22:39:53.770Z,96128.09
2023-03-05T22:42:20.060Z,96121.88
2023-03-05T22:44:46.352Z,96131.53
2023-03-05T22:47:12.690Z,96129.09
2023-03-05T22:49:38.994Z,96131.84
2023-03-05T22:52:05.259Z,96130.09
2023-03-05T22:54:31.544Z,96131.22
2023-03-05T22:56:57.808Z,96131.31
2023-03-05T22:59:24.146Z,96125.22
2023-03-05T23:01:50.433Z,96123.16
2023-03-05T23:04:16.771Z,96118.31
2023-03-05T23:06:43.056Z,96122.00
2023-03-05T23:09:09.336Z,96129.34
2023-03-05T23:11:35.605Z,96125.75
2023-03-05T23:14:01.880Z,96127.81
2023-03-05T23:16:28.157Z,96124.13
2023-03-05T23:18:54.436Z,96117.22
2023-03-05T23:21:20.687Z,96110.47
2023-03-05T23:23:46.930Z,96111.50
2023-03-05T23:26:13.197Z,96103.56
2023-03-05T23:28:39.456Z,96104.59
2023-03-05T23:31:05.775Z,96116.19
2023-03-05T23:33:32.059Z,96118.50
2023-03-05T23:35:58.381Z,96117.16
2023-03-05T23:38:24.671Z,96116.22
2023-03-05T23:40:50.951Z,96111.22
2023-03-05T23:43:17.220Z,96110.28
2023-03-05T23:45:43.489Z,96114.75
2023-03-05T23:48:09.745Z,96124.53
2023-03-05T23:50:36.033Z,96116.97
2023-03-05T23:53:02.488Z,96116.38
2023-03-05T23:55:28.756Z,96114.84
2023-03-05T23:57:55.069Z,96114.03
